createdAt,value
2023-01-15T00:00:49.548Z,7.77
2023-01-15T00:03:34.830Z,8.07
2023-01-15T00:06:21.491Z,7.32
2023-01-15T00:09:08.904Z,7.43
2023-01-15T00:11:55.078Z,7.32
2023-01-15T00:14:40.383Z,7.23
2023-01-15T00:17:25.869Z,6.88
2023-01-15T00:20:12.324Z,6.75
2023-01-15T00:22:57.959Z,6.65
2023-01-15T00:26:01.927Z,7.65
2023-01-15T00:28:48.764Z,6.53
2023-01-15T00:31:35.712Z,7.00
2023-01-15T00:34:21.129Z,5.95
2023-01-15T00:37:06.442Z,6.13
2023-01-15T00:39:51.641Z,6.90
2023-01-15T00:42:36.981Z,6.67
2023-01-15T00:45:23.010Z,6.55
2023-01-15T00:48:09.126Z,6.50
2023-01-15T00:50:54.890Z,6.10
2023-01-15T00:53:40.515Z,6.25
2023-01-15T00:56:25.890Z,6.53
2023-01-15T00:59:11.721Z,6.43
2023-01-15T01:01:57.098Z,6.10
2023-01-15T01:04:42.186Z,5.72
2023-01-15T01:07:27.526Z,6.30
2023-01-15T01:10:13.354Z,5.93
2023-01-15T01:12:58.780Z,5.82
2023-01-15T01:15:43.944Z,5.70
2023-01-15T01:18:29.573Z,5.95
2023-01-15T01:21:14.761Z,5.75
2023-01-15T01:24:00.747Z,6.20
2023-01-15T01:26:48.113Z,5.70
2023-01-15T01:29:33.621Z,5.60
2023-01-15T01:32:19.100Z,5.32
2023-01-15T01:35:04.702Z,6.03
2023-01-15T01:37:51.576Z,5.80
2023-01-15T01:40:39.195Z,5.55
2023-01-15T01:43:26.859Z,5.78
2023-01-15T01:46:12.298Z,5.53
2023-01-15T01:49:09.186Z,5.28
2023-01-15T01:52:04.200Z,5.37
2023-01-15T01:54:50.951Z,5.00
2023-01-15T01:57:38.417Z,5.25
2023-01-15T02:00:24.495Z,5.13
2023-01-15T02:03:11.328Z,4.63
2023-01-15T02:06:00.082Z,4.90
2023-01-15T02:08:46.837Z,4.47
2023-01-15T02:11:33.160Z,5.30
2023-01-15T02:14:39.201Z,5.40
2023-01-15T02:17:40.344Z,4.57
2023-01-15T02:20:33.868Z,4.70
2023-01-15T02:23:53.206Z,4.60
2023-01-15T02:27:00.577Z,4.63
2023-01-15T02:29:54.626Z,4.70
2023-01-15T02:32:51.473Z,4.90
2023-01-15T02:35:40.629Z,4.63
2023-01-15T02:38:32.765Z,4.65
2023-01-15T02:41:22.085Z,4.60
2023-01-15T02:44:09.098Z,4.43
2023-01-15T02:46:56.467Z,4.63
2023-01-15T02:49:46.526Z,4.17
2023-01-15T02:52:39.007Z,4.30
2023-01-15T02:55:37.092Z,4.65
2023-01-15T02:58:28.644Z,3.95
2023-01-15T03:01:23.505Z,4.22
2023-01-15T03:04:31.228Z,3.80
2023-01-15T03:07:25.479Z,4.00
2023-01-15T03:10:12.172Z,3.88
2023-01-15T03:13:03.463Z,4.03
2023-01-15T03:16:33.381Z,4.40
2023-01-15T03:19:29.339Z,4.07
2023-01-15T03:22:33.249Z,4.30
2023-01-15T03:25:24.378Z,4.05
2023-01-15T03:28:14.179Z,3.95
2023-01-15T03:31:00.148Z,4.03
2023-01-15T03:33:46.399Z,3.63
2023-01-15T03:36:35.388Z,3.85
2023-01-15T03:39:21.302Z,4.03
2023-01-15T03:42:43.131Z,3.65
2023-01-15T03:45:34.369Z,4.05
2023-01-15T03:48:31.103Z,3.83
2023-01-15T03:51:23.556Z,3.83
2023-01-15T03:54:21.514Z,3.88
2023-01-15T03:57:27.225Z,3.50
2023-01-15T04:00:19.780Z,3.92
2023-01-15T04:03:12.101Z,3.60
2023-01-15T04:06:00.367Z,4.15
2023-01-15T04:08:47.893Z,3.33
2023-01-15T04:11:35.960Z,3.90
2023-01-15T04:14:24.002Z,3.40
2023-01-15T04:17:12.674Z,3.40
2023-01-15T04:19:57.958Z,3.25
2023-01-15T04:22:43.180Z,3.63
2023-01-15T04:25:28.462Z,3.20
2023-01-15T04:28:13.610Z,3.35
2023-01-15T04:30:59.857Z,3.40
2023-01-15T04:33:45.538Z,3.28
2023-01-15T04:36:31.042Z,3.33
2023-01-15T04:39:16.491Z,2.95
2023-01-15T04:42:20.272Z,3.47
2023-01-15T04:45:06.545Z,3.40
2023-01-15T04:47:51.979Z,3.05
2023-01-15T04:50:39.070Z,3.15
2023-01-15T04:53:26.357Z,2.85
2023-01-15T04:56:11.572Z,3.10
2023-01-15T04:59:00.876Z,3.10
2023-01-15T05:02:02.062Z,3.10
2023-01-15T05:04:48.644Z,3.03
2023-01-15T05:07:33.913Z,3.05
2023-01-15T05:10:19.242Z,3.00
2023-01-15T05:13:04.542Z,2.90
2023-01-15T05:15:49.690Z,2.92
2023-01-15T05:18:35.486Z,2.50
2023-01-15T05:21:22.528Z,2.80
2023-01-15T05:24:13.004Z,3.33
2023-01-15T05:26:58.366Z,3.30
2023-01-15T05:29:43.714Z,2.92
2023-01-15T05:32:31.074Z,2.90
2023-01-15T05:35:16.495Z,2.60
2023-01-15T05:38:03.900Z,2.72
2023-01-15T05:40:49.742Z,2.70
2023-01-15T05:43:35.197Z,2.80
2023-01-15T05:46:20.920Z,3.10
2023-01-15T05:49:10.724Z,2.83
2023-01-15T05:51:58.149Z,2.25
2023-01-15T05:54:43.913Z,2.77
2023-01-15T05:57:29.112Z,2.70
2023-01-15T06:00:15.144Z,2.42
2023-01-15T06:03:00.773Z,2.60
2023-01-15T06:05:51.143Z,2.40
2023-01-15T06:08:36.323Z,2.60
2023-01-15T06:11:21.773Z,2.65
2023-01-15T06:14:08.310Z,2.50
2023-01-15T06:16:53.695Z,2.50
2023-01-15T06:19:38.962Z,2.30
2023-01-15T06:22:24.299Z,2.40
2023-01-15T06:25:09.803Z,2.55
2023-01-15T06:27:55.442Z,2.35
2023-01-15T06:30:40.772Z,2.20
2023-01-15T06:33:26.233Z,2.20
2023-01-15T06:36:24.046Z,2.20
2023-01-15T06:39:09.212Z,2.20
2023-01-15T06:42:13.192Z,2.17
2023-01-15T06:45:17.127Z,2.30
2023-01-15T06:48:02.549Z,2.25
2023-01-15T06:50:48.505Z,2.33
2023-01-15T06:53:33.620Z,2.20
2023-01-15T06:56:19.162Z,2.10
2023-01-15T06:59:04.454Z,2.30
2023-01-15T07:01:49.666Z,2.20
2023-01-15T07:04:34.935Z,2.13
2023-01-15T07:07:21.013Z,2.10
2023-01-15T07:10:06.796Z,1.80
2023-01-15T07:12:52.081Z,2.30
2023-01-15T07:15:40.514Z,2.05
2023-01-15T07:18:27.036Z,2.27
2023-01-15T07:21:12.355Z,1.50
2023-01-15T07:24:01.662Z,2.53
2023-01-15T07:26:47.353Z,2.20
2023-01-15T07:29:32.819Z,2.03
2023-01-15T07:32:18.471Z,2.10
2023-01-15T07:35:03.862Z,2.08
2023-01-15T07:37:52.835Z,2.08
2023-01-15T07:40:38.868Z,2.17
2023-01-15T07:43:42.841Z,2.10
2023-01-15T07:46:47.227Z,1.80
2023-01-15T07:49:51.215Z,2.05
2023-01-15T07:52:36.684Z,1.95
2023-01-15T07:55:23.228Z,2.10
2023-01-15T07:58:08.301Z,2.00
2023-01-15T08:00:53.626Z,1.93
2023-01-15T08:03:38.732Z,2.00
2023-01-15T08:06:23.764Z,2.00
2023-01-15T08:09:09.286Z,2.22
2023-01-15T08:12:13.078Z,1.63
2023-01-15T08:15:13.478Z,1.97
2023-01-15T08:17:58.685Z,2.10
2023-01-15T08:20:46.138Z,2.00
2023-01-15T08:23:32.245Z,2.20
2023-01-15T08:26:17.607Z,1.73
2023-01-15T08:29:02.849Z,1.60
2023-01-15T08:31:48.903Z,1.88
2023-01-15T08:34:34.124Z,2.00
2023-01-15T08:37:19.325Z,1.88
2023-01-15T08:40:05.419Z,1.90
2023-01-15T08:42:50.891Z,1.90
2023-01-15T08:45:36.190Z,1.63
2023-01-15T08:48:21.406Z,1.67
2023-01-15T08:51:08.976Z,2.20
2023-01-15T08:53:54.041Z,1.52
2023-01-15T08:56:39.317Z,1.57
2023-01-15T08:59:24.454Z,1.80
2023-01-15T09:02:13.284Z,1.70
2023-01-15T09:04:58.612Z,1.95
2023-01-15T09:07:43.930Z,1.60
2023-01-15T09:10:29.081Z,1.80
2023-01-15T09:13:15.826Z,1.80
2023-01-15T09:16:03.370Z,1.80
2023-01-15T09:18:48.621Z,2.22
2023-01-15T09:21:34.642Z,1.60
2023-01-15T09:24:20.534Z,1.93
2023-01-15T09:27:05.810Z,2.08
2023-01-15T09:29:51.724Z,1.85
2023-01-15T09:32:36.926Z,2.03
2023-01-15T09:35:25.018Z,2.10
2023-01-15T09:38:15.269Z,2.00
2023-01-15T09:41:30.192Z,1.77
2023-01-15T09:44:50.056Z,1.55
2023-01-15T09:47:53.649Z,2.13
2023-01-15T09:50:58.141Z,1.80
2023-01-15T09:54:06.576Z,1.57
2023-01-15T09:56:52.233Z,1.80
2023-01-15T09:59:42.617Z,1.52
2023-01-15T10:02:46.162Z,1.73
2023-01-15T10:05:42.537Z,1.40
2023-01-15T10:08:50.453Z,2.00
2023-01-15T10:12:02.696Z,1.60
2023-01-15T10:15:15.442Z,1.60
2023-01-15T10:18:02.612Z,1.50
2023-01-15T10:21:40.330Z,1.50
2023-01-15T10:24:40.328Z,1.60
2023-01-15T10:27:33.072Z,2.00
2023-01-15T10:30:27.694Z,1.55
2023-01-15T10:33:34.703Z,1.58
2023-01-15T10:36:29.295Z,1.73
2023-01-15T10:39:21.300Z,1.57
2023-01-15T10:42:23.206Z,1.90
2023-01-15T10:45:18.369Z,1.33
2023-01-15T10:48:21.532Z,0.50
2023-01-15T10:51:21.486Z,0.65
2023-01-15T10:54:22.617Z,0.60
2023-01-15T10:57:29.257Z,0.60
2023-01-15T11:00:16.043Z,0.60
2023-01-15T11:03:14.739Z,0.70
2023-01-15T11:06:00.214Z,0.50
2023-01-15T11:09:09.679Z,0.50
2023-01-15T11:15:16.707Z,0.50
2023-01-15T11:18:21.816Z,0.60
2023-01-15T11:21:13.396Z,0.63
2023-01-15T11:24:00.425Z,0.40
2023-01-15T11:26:50.604Z,0.50
2023-01-15T11:29:37.748Z,0.50
2023-01-15T11:32:33.165Z,0.50
2023-01-15T11:35:19.098Z,0.60
2023-01-15T11:38:14.246Z,0.50
2023-01-15T11:41:05.281Z,0.40
2023-01-15T11:44:18.702Z,0.50
2023-01-15T11:47:28.707Z,0.50
2023-01-15T11:50:36.849Z,0.65
2023-01-15T11:53:32.973Z,0.60
2023-01-15T11:56:23.280Z,0.50
2023-01-15T11:59:17.573Z,0.50
2023-01-15T12:02:16.228Z,0.40
2023-01-15T12:05:05.122Z,0.52
2023-01-15T12:07:55.015Z,0.50
2023-01-15T12:11:25.188Z,0.60
2023-01-15T12:14:36.341Z,0.55
2023-01-15T12:17:46.341Z,0.50
2023-01-15T12:21:23.482Z,0.77
2023-01-15T12:30:12.994Z,0.60
2023-01-15T12:40:14.338Z,0.45
2023-01-15T12:46:04.608Z,0.60
2023-01-15T12:49:01.401Z,0.50
2023-01-15T12:52:03.045Z,0.50
2023-01-15T12:54:55.953Z,0.70
2023-01-15T12:57:49.862Z,0.50
2023-01-15T13:00:41.731Z,0.50
2023-01-15T13:03:49.342Z,0.50
2023-01-15T13:06:38.638Z,0.68
2023-01-15T13:09:32.568Z,0.50
2023-01-15T13:12:17.889Z,0.50
2023-01-15T13:15:04.755Z,0.60
2023-01-15T13:18:01.996Z,0.60
2023-01-15T13:20:52.395Z,0.60
2023-01-15T13:24:08.132Z,0.50
2023-01-15T13:27:14.871Z,0.70
2023-01-15T13:30:12.123Z,0.45
2023-01-15T13:32:56.695Z,0.80
2023-01-15T13:35:48.858Z,0.60
2023-01-15T13:38:44.944Z,0.50
2023-01-15T13:41:52.638Z,0.83
2023-01-15T14:41:10.903Z,0.60
2023-01-15T14:44:12.093Z,1.00
2023-01-15T14:55:46.783Z,0.65
2023-01-15T14:58:46.464Z,0.52
2023-01-15T15:01:39.117Z,0.63
2023-01-15T15:04:54.135Z,0.60
2023-01-15T15:07:48.345Z,0.90
2023-01-15T15:10:40.551Z,0.90
2023-01-15T15:13:36.196Z,0.70
2023-01-15T15:16:28.504Z,0.80
2023-01-15T15:19:27.321Z,0.67
2023-01-15T15:22:18.218Z,0.70
2023-01-15T15:25:11.022Z,0.68
2023-01-15T15:28:16.113Z,0.70
2023-01-15T15:31:02.367Z,0.70
2023-01-15T15:33:50.938Z,0.63
2023-01-15T15:36:39.518Z,0.80
2023-01-15T15:39:41.358Z,0.60
2023-01-15T15:43:09.617Z,1.02
2023-01-15T15:46:15.605Z,0.70
2023-01-15T15:49:01.582Z,0.70
2023-01-15T15:51:50.933Z,0.70
2023-01-15T15:54:36.118Z,0.73
2023-01-15T15:57:22.245Z,0.60
2023-01-15T16:05:20.052Z,0.80
2023-01-15T16:08:18.219Z,0.80
2023-01-15T16:11:11.609Z,0.85
2023-01-15T16:13:59.084Z,0.70
2023-01-15T16:16:45.057Z,0.90
2023-01-15T16:19:30.966Z,1.10
2023-01-15T16:22:17.969Z,0.80
2023-01-15T16:25:03.599Z,0.85
2023-01-15T16:27:49.797Z,0.70
2023-01-15T16:30:36.151Z,0.70
2023-01-15T16:33:21.707Z,0.70
2023-01-15T16:36:08.179Z,0.75
2023-01-15T16:38:54.516Z,0.80
2023-01-15T16:41:42.496Z,0.80
2023-01-15T16:44:46.843Z,0.70
2023-01-15T16:47:34.110Z,0.60
2023-01-15T16:50:22.384Z,0.90
2023-01-15T16:53:36.916Z,0.70
2023-01-15T16:56:37.630Z,0.60
2023-01-15T16:59:26.182Z,1.00
2023-01-15T17:02:21.913Z,5.23
2023-01-15T17:05:25.865Z,7.20
2023-01-15T17:08:20.694Z,11.50
2023-01-15T17:11:30.212Z,10.75
2023-01-15T17:14:24.456Z,13.85
2023-01-15T17:17:24.306Z,13.17
2023-01-15T17:20:12.660Z,10.98
2023-01-15T17:22:58.100Z,10.15
2023-01-15T17:25:43.474Z,6.03
2023-01-15T17:28:29.247Z,4.38
2023-01-15T17:31:17.577Z,4.20
2023-01-15T17:34:04.022Z,4.82
2023-01-15T17:36:49.252Z,5.15
2023-01-15T17:39:34.459Z,3.58
2023-01-15T17:42:20.746Z,4.15
2023-01-15T17:45:07.621Z,4.57
2023-01-15T17:47:53.084Z,3.55
2023-01-15T17:50:41.130Z,3.60
2023-01-15T17:53:28.090Z,3.47
2023-01-15T17:56:32.370Z,3.95
2023-01-15T17:59:36.933Z,3.57
2023-01-15T18:02:40.890Z,3.38
2023-01-15T18:05:27.117Z,3.80
2023-01-15T18:08:12.994Z,2.40
2023-01-15T18:10:58.003Z,2.25
2023-01-15T18:13:47.557Z,2.60
2023-01-15T18:16:33.177Z,3.83
2023-01-15T18:19:19.239Z,98.25
2023-01-15T18:22:52.887Z,73.90
2023-01-15T18:25:39.438Z,53.08
2023-01-15T18:28:24.628Z,48.00
2023-01-15T18:31:11.449Z,45.70
2023-01-15T18:33:56.984Z,44.08
2023-01-15T18:36:42.444Z,42.38
2023-01-15T18:39:28.064Z,40.55
2023-01-15T18:42:13.696Z,40.77
2023-01-15T18:45:17.698Z,40.28
2023-01-15T18:48:03.321Z,39.08
2023-01-15T18:50:49.203Z,39.30
2023-01-15T18:53:35.176Z,37.28
2023-01-15T18:56:39.011Z,36.17
2023-01-15T18:59:24.390Z,37.95
2023-01-15T19:02:09.936Z,35.00
2023-01-15T19:04:55.025Z,33.50
2023-01-15T19:07:40.897Z,32.33
2023-01-15T19:10:26.585Z,31.07
2023-01-15T19:13:13.522Z,7.15
2023-01-15T19:16:18.034Z,2.60
2023-01-15T19:19:03.062Z,8.18
2023-01-15T19:22:08.354Z,9.02
2023-01-15T19:24:54.068Z,10.87
2023-01-15T19:27:39.375Z,10.52
2023-01-15T19:30:29.008Z,10.00
2023-01-15T19:33:14.814Z,10.13
2023-01-15T19:36:00.544Z,9.75
2023-01-15T19:38:45.893Z,9.67
2023-01-15T19:41:49.980Z,9.70
2023-01-15T19:44:53.839Z,9.48
2023-01-15T19:47:59.522Z,9.10
2023-01-15T19:50:46.684Z,9.45
2023-01-15T19:53:31.913Z,8.93
2023-01-15T19:56:17.672Z,9.77
2023-01-15T19:59:04.851Z,9.10
2023-01-15T20:01:50.286Z,9.38
2023-01-15T20:04:36.534Z,9.50
2023-01-15T20:07:22.301Z,10.50
2023-01-15T20:10:10.991Z,11.25
2023-01-15T20:13:15.118Z,9.55
2023-01-15T20:16:07.428Z,10.25
2023-01-15T20:18:53.307Z,10.50
2023-01-15T20:21:38.896Z,9.27
2023-01-15T20:24:24.308Z,9.68
2023-01-15T20:27:13.832Z,9.50
2023-01-15T20:30:10.885Z,9.15
2023-01-15T20:33:00.125Z,12.63
2023-01-15T20:35:45.498Z,10.23
2023-01-15T20:38:31.813Z,9.30
2023-01-15T20:44:54.678Z,9.25
2023-01-15T20:48:00.271Z,9.30
2023-01-15T20:51:03.366Z,8.20
2023-01-15T20:53:50.819Z,8.77
2023-01-15T20:56:36.439Z,8.48
2023-01-15T20:59:21.766Z,8.77
2023-01-15T21:02:07.600Z,8.80
2023-01-15T21:04:53.084Z,8.40
2023-01-15T21:07:39.151Z,8.07
2023-01-15T21:10:25.372Z,7.90
2023-01-15T21:13:10.704Z,7.88
2023-01-15T21:16:02.405Z,6.85
2023-01-15T21:18:49.086Z,7.43
2023-01-15T21:21:35.061Z,6.65
2023-01-15T21:24:20.280Z,6.38
2023-01-15T21:27:05.912Z,6.88
2023-01-15T21:29:51.696Z,6.85
2023-01-15T21:32:38.534Z,6.07
2023-01-15T21:35:24.374Z,5.60
2023-01-15T21:38:09.875Z,4.32
2023-01-15T21:40:55.279Z,4.75
2023-01-15T21:43:59.560Z,5.53
2023-01-15T21:46:45.015Z,4.90
2023-01-15T21:49:33.682Z,4.75
2023-01-15T21:52:20.471Z,4.15
2023-01-15T21:55:07.402Z,4.60
2023-01-15T21:57:52.775Z,3.80
2023-01-15T22:00:38.083Z,3.30
2023-01-15T22:03:23.307Z,3.20
2023-01-15T22:06:10.578Z,3.47
2023-01-15T22:08:56.634Z,3.78
2023-01-15T22:11:44.475Z,3.00
2023-01-15T22:14:31.560Z,3.30
2023-01-15T22:17:16.879Z,3.13
2023-01-15T22:20:02.134Z,3.53
2023-01-15T22:22:48.604Z,3.08
2023-01-15T22:25:34.356Z,3.38
2023-01-15T22:28:19.456Z,3.27
2023-01-15T22:31:06.347Z,3.20
2023-01-15T22:33:51.798Z,2.97
2023-01-15T22:36:37.032Z,2.88
2023-01-15T22:39:23.704Z,3.10
2023-01-15T22:42:24.290Z,2.70
2023-01-15T22:45:10.079Z,3.10
2023-01-15T22:47:55.073Z,2.50
2023-01-15T22:50:40.059Z,2.72
2023-01-15T22:53:25.161Z,3.00
2023-01-15T22:56:10.345Z,3.03
2023-01-15T22:58:55.864Z,2.70
2023-01-15T23:01:41.656Z,2.65
2023-01-15T23:04:27.313Z,2.88
2023-01-15T23:07:12.771Z,2.95
2023-01-15T23:09:58.008Z,2.80
2023-01-15T23:12:43.314Z,2.67
2023-01-15T23:15:28.358Z,2.65
2023-01-15T23:18:14.152Z,2.83
2023-01-15T23:21:04.604Z,2.50
2023-01-15T23:23:54.609Z,2.23
2023-01-15T23:26:40.695Z,2.53
2023-01-15T23:29:25.921Z,2.50
2023-01-15T23:32:11.182Z,2.58
2023-01-15T23:34:56.167Z,2.10
2023-01-15T23:37:41.469Z,2.43
2023-01-15T23:40:26.736Z,2.30
2023-01-15T23:43:32.989Z,2.20
2023-01-15T23:46:34.858Z,2.28
2023-01-15T23:49:20.981Z,2.28
2023-01-15T23:52:06.562Z,2.33
2023-01-15T23:54:51.568Z,2.35
2023-01-15T23:57:36.768Z,2.70
